DRRP weather

La Tapoa Airport
La Tapoa, Tillabéri Region, Niger

Public forecast

Using degrees Celsius for public forecast. Weather courtesy of forecast.io.

METAR (pilot weather report)

Closest report is Diori Hamani International Airport, 61.3 nm (113.5 km) NNW. Retrieved 2019/02/16 12:00 UTC (1 hour ago):

DRRN 161200Z 10012KT 060V120 3500 BLDU NSC 29/M07 Q1016 TEMPO 2000

TAF (pilot weather forecast)

Closest forecast is Diori Hamani International Airport, 61.3 nm (113.5 km) NNW. Retrieved 2019/02/16 12:21 UTC (39 minutes ago):

TAF DRRN 161100Z 1612/1718 08010KT 4500 DU NSC TEMPO 1617/1621 2500 TEMPO 1608/1611 08020KT 2000 BLDU